createdAt,value
2019-04-14T00:00:01.138Z,101032.98
2019-04-14T00:05:08.253Z,101036.38
2019-04-14T00:10:12.105Z,101035.16
2019-04-14T00:15:25.906Z,101034.75
2019-04-14T00:20:18.597Z,101033.23
2019-04-14T00:25:21.664Z,101034.03
2019-04-14T00:30:25.083Z,101030.03
2019-04-14T00:35:47.230Z,101025.22
2019-04-14T00:41:10.100Z,101025.58
2019-04-14T00:46:19.073Z,101031.17
2019-04-14T00:51:22.217Z,101025.22
2019-04-14T00:56:24.216Z,101031.10
2019-04-14T01:01:26.531Z,101017.50
2019-04-14T01:06:29.413Z,101017.50
2019-04-14T01:11:31.465Z,101016.70
2019-04-14T01:16:34.096Z,101019.93
2019-04-14T01:21:37.094Z,101029.23
2019-04-14T01:26:39.995Z,101020.91
2019-04-14T01:31:42.523Z,101020.97
2019-04-14T01:36:45.331Z,101027.52
2019-04-14T01:41:47.861Z,101023.12
2019-04-14T01:46:52.076Z,101024.16
2019-04-14T01:52:23.191Z,101027.05
2019-04-14T01:57:56.934Z,101030.61
2019-04-14T02:02:59.733Z,101037.37
2019-04-14T02:08:02.342Z,101046.33
2019-04-14T02:13:04.960Z,101048.10
2019-04-14T02:18:08.064Z,101046.64
2019-04-14T02:23:12.439Z,101038.57
2019-04-14T02:28:15.527Z,101042.84
2019-04-14T02:33:44.651Z,101041.86
2019-04-14T02:43:58.120Z,101044.38
2019-04-14T02:54:04.898Z,101047.99
2019-04-14T03:04:09.318Z,101051.16
2019-04-14T03:14:15.688Z,101048.38
2019-04-14T03:19:25.302Z,101052.06
2019-04-14T03:24:39.042Z,101046.81
2019-04-14T03:30:16.962Z,101042.47
2019-04-14T03:35:23.127Z,101043.05
2019-04-14T03:40:10.002Z,101041.11
2019-04-14T03:45:23.800Z,101041.39
2019-04-14T03:50:13.719Z,101044.23
2019-04-14T03:55:13.888Z,101045.72
2019-04-14T03:59:59.185Z,101050.41
2019-04-14T04:05:02.246Z,101048.47
2019-04-14T04:10:11.346Z,101045.86
2019-04-14T04:15:14.900Z,101047.72
2019-04-14T04:20:52.406Z,101045.89
2019-04-14T04:26:12.914Z,101049.63
2019-04-14T04:31:37.442Z,101047.25
2019-04-14T04:36:46.570Z,101046.20
2019-04-14T04:41:49.448Z,101050.87
2019-04-14T04:46:52.689Z,101053.45
2019-04-14T04:51:55.134Z,101055.02
2019-04-14T04:56:58.039Z,101055.59
2019-04-14T05:02:00.459Z,101060.81
2019-04-14T05:07:03.599Z,101062.41
2019-04-14T05:12:13.599Z,101063.08
2019-04-14T05:17:16.971Z,101071.36
2019-04-14T05:22:20.815Z,101074.64
2019-04-14T05:27:25.349Z,101074.98
2019-04-14T05:32:28.378Z,101079.83
2019-04-14T05:37:31.558Z,101083.63
2019-04-14T05:42:34.082Z,101080.68
2019-04-14T05:47:37.118Z,101084.30
2019-04-14T05:52:40.357Z,101079.15
2019-04-14T05:57:43.708Z,101086.41
2019-04-14T06:02:46.307Z,101080.97
2019-04-14T06:07:48.310Z,101089.74
2019-04-14T06:12:50.232Z,101091.73
2019-04-14T06:17:53.531Z,101097.91
2019-04-14T06:22:55.437Z,101101.63
2019-04-14T06:27:58.526Z,101105.66
2019-04-14T06:33:07.050Z,101107.23
2019-04-14T06:38:21.259Z,101105.09
2019-04-14T06:43:23.160Z,101109.09
2019-04-14T06:48:25.254Z,101109.20
2019-04-14T06:53:27.188Z,101107.41
2019-04-14T06:58:29.101Z,101115.77
2019-04-14T07:03:31.022Z,101109.34
2019-04-14T07:08:32.929Z,101109.16
2019-04-14T07:13:35.159Z,101096.39
2019-04-14T07:18:37.060Z,101108.05
2019-04-14T07:23:39.070Z,101104.99
2019-04-14T07:28:40.965Z,101104.36
2019-04-14T07:34:01.239Z,101100.55
2019-04-14T07:39:23.489Z,101105.19
2019-04-14T07:44:45.176Z,101115.70
2019-04-14T07:49:57.136Z,101118.23
2019-04-14T07:55:18.720Z,101119.45
2019-04-14T08:00:52.394Z,101118.03
2019-04-14T08:05:54.414Z,101118.89
2019-04-14T08:10:56.553Z,101118.86
2019-04-14T08:15:58.447Z,101122.05
2019-04-14T08:21:00.359Z,101127.52
2019-04-14T08:26:02.369Z,101132.38
2019-04-14T08:31:04.245Z,101137.66
2019-04-14T08:36:06.173Z,101124.83
2019-04-14T08:41:08.200Z,101130.31
2019-04-14T08:46:19.291Z,101134.13
2019-04-14T08:51:28.375Z,101142.06
2019-04-14T08:56:53.471Z,101139.32
2019-04-14T09:02:13.818Z,101139.32
2019-04-14T09:07:25.878Z,101144.58
2019-04-14T09:12:30.848Z,101145.19
2019-04-14T09:17:32.760Z,101141.23
2019-04-14T09:22:34.759Z,101141.23
2019-04-14T09:27:36.686Z,101145.97
2019-04-14T09:32:38.676Z,101154.02
2019-04-14T09:37:40.589Z,101148.45
2019-04-14T09:42:42.535Z,101139.95
2019-04-14T09:47:44.647Z,101153.34
2019-04-14T09:52:46.553Z,101154.10
2019-04-14T09:57:48.471Z,101156.61
2019-04-14T10:02:50.359Z,101161.78
2019-04-14T10:07:52.284Z,101158.91
2019-04-14T10:12:54.574Z,101161.08
2019-04-14T10:17:56.503Z,101161.08
2019-04-14T10:22:58.411Z,101178.94
2019-04-14T10:28:00.421Z,101178.64
2019-04-14T10:33:02.414Z,101181.80
2019-04-14T10:38:04.544Z,101180.86
2019-04-14T10:43:06.453Z,101174.22
2019-04-14T10:48:08.500Z,101169.42
2019-04-14T10:53:10.374Z,101166.64
2019-04-14T10:58:12.296Z,101185.13
2019-04-14T11:03:14.333Z,101179.52
2019-04-14T11:08:17.893Z,101179.52
2019-04-14T11:13:19.790Z,101171.55
2019-04-14T11:18:21.720Z,101170.55
2019-04-14T11:23:23.608Z,101169.55
2019-04-14T11:28:26.547Z,101162.14
2019-04-14T11:33:48.126Z,101170.91
2019-04-14T11:38:55.049Z,101170.91
2019-04-14T11:43:57.418Z,101170.33
2019-04-14T11:48:59.602Z,101178.86
2019-04-14T11:54:01.618Z,101184.59
2019-04-14T11:59:03.731Z,101182.09
2019-04-14T12:04:24.871Z,101183.70
2019-04-14T12:09:29.732Z,101193.43
2019-04-14T12:14:31.798Z,101194.13
2019-04-14T12:19:33.796Z,101194.13
2019-04-14T12:24:35.807Z,101190.98
2019-04-14T12:29:38.947Z,101200.17
2019-04-14T12:34:41.170Z,101188.69
2019-04-14T12:39:43.128Z,101193.41
2019-04-14T12:44:51.965Z,101190.02
2019-04-14T12:49:54.863Z,101186.93
2019-04-14T12:54:57.247Z,101191.33
2019-04-14T12:59:59.255Z,101191.41
2019-04-14T13:05:01.352Z,101193.44
2019-04-14T13:10:04.794Z,101188.61
2019-04-14T13:15:06.989Z,101185.66
2019-04-14T13:20:09.707Z,101188.25
2019-04-14T13:25:12.879Z,101192.06
2019-04-14T13:30:17.428Z,101190.16
2019-04-14T13:35:19.361Z,101192.48
2019-04-14T13:40:22.463Z,101189.61
2019-04-14T13:45:24.445Z,101190.91
2019-04-14T13:50:27.410Z,101186.20
2019-04-14T13:55:29.395Z,101191.45
2019-04-14T14:00:31.420Z,101193.91
2019-04-14T14:05:33.406Z,101198.88
2019-04-14T14:10:35.487Z,101189.52
2019-04-14T14:16:06.227Z,101193.13
2019-04-14T14:21:20.976Z,101185.80
2019-04-14T14:26:24.145Z,101191.97
2019-04-14T14:31:26.031Z,101185.78
2019-04-14T14:36:28.529Z,101193.20
2019-04-14T14:41:30.455Z,101186.41
2019-04-14T14:46:55.973Z,101180.88
2019-04-14T14:52:04.980Z,101184.45
2019-04-14T14:57:06.922Z,101192.97
2019-04-14T15:02:08.903Z,101183.48
2019-04-14T15:07:10.947Z,101175.63
2019-04-14T15:12:13.889Z,101171.32
2019-04-14T15:17:15.870Z,101168.17
2019-04-14T15:22:17.792Z,101173.77
2019-04-14T15:27:19.867Z,101176.30
2019-04-14T15:32:21.852Z,101174.34
2019-04-14T15:37:23.732Z,101178.91
2019-04-14T15:42:25.665Z,101182.33
2019-04-14T15:47:27.549Z,101184.34
2019-04-14T15:52:29.475Z,101182.16
2019-04-14T15:57:45.729Z,101179.08
2019-04-14T16:03:07.285Z,101187.43
2019-04-14T16:08:20.207Z,101183.25
2019-04-14T16:13:41.782Z,101186.08
2019-04-14T16:18:48.745Z,101190.69
2019-04-14T16:23:51.148Z,101183.82
2019-04-14T16:29:02.722Z,101182.13
2019-04-14T16:34:11.675Z,101190.54
2019-04-14T16:39:13.856Z,101180.09
2019-04-14T16:44:16.131Z,101188.36
2019-04-14T16:49:18.059Z,101187.25
2019-04-14T16:54:26.756Z,101192.35
2019-04-14T16:59:28.743Z,101188.25
2019-04-14T17:04:31.959Z,101199.14
2019-04-14T17:09:33.857Z,101196.06
2019-04-14T17:14:40.940Z,101197.91
2019-04-14T17:19:53.415Z,101204.66
2019-04-14T17:25:03.610Z,101207.48
2019-04-14T17:30:21.917Z,101207.59
2019-04-14T17:35:30.220Z,101209.64
2019-04-14T17:40:51.896Z,101215.11
2019-04-14T17:46:19.172Z,101212.20
2019-04-14T17:51:43.727Z,101216.10
2019-04-14T17:57:00.655Z,101227.37
2019-04-14T18:02:06.203Z,101225.66
2019-04-14T18:07:30.785Z,101229.68
2019-04-14T18:12:36.612Z,101236.52
2019-04-14T18:18:00.257Z,101249.80
2019-04-14T18:23:02.207Z,101252.38
2019-04-14T18:28:17.014Z,101251.38
2019-04-14T18:33:29.955Z,101259.66
2019-04-14T18:38:50.095Z,101263.53
2019-04-14T18:44:26.556Z,101267.00
2019-04-14T18:49:48.167Z,101270.06
2019-04-14T18:55:02.492Z,101274.23
2019-04-14T19:00:23.489Z,101281.69
2019-04-14T19:05:25.395Z,101292.25
2019-04-14T19:10:27.573Z,101290.19
2019-04-14T19:15:34.220Z,101292.64
2019-04-14T19:20:37.621Z,101293.27
2019-04-14T19:25:39.537Z,101305.45
2019-04-14T19:30:41.428Z,101302.30
2019-04-14T19:35:43.355Z,101294.51
2019-04-14T19:40:45.288Z,101306.50
2019-04-14T19:45:47.316Z,101314.59
2019-04-14T19:50:49.262Z,101311.20
2019-04-14T19:55:51.210Z,101317.30
2019-04-14T20:00:53.202Z,101323.44
2019-04-14T20:05:55.342Z,101321.70
2019-04-14T20:10:58.396Z,101325.56
2019-04-14T20:16:31.867Z,101333.22
2019-04-14T20:21:53.599Z,101341.16
2019-04-14T20:26:59.477Z,101337.34
2019-04-14T20:32:04.230Z,101344.45
2019-04-14T20:37:06.338Z,101344.50
2019-04-14T20:42:08.342Z,101352.63
2019-04-14T20:47:10.467Z,101352.53
2019-04-14T20:52:12.961Z,101346.30
2019-04-14T20:57:14.948Z,101358.02
2019-04-14T21:02:35.448Z,101359.68
2019-04-14T21:07:51.853Z,101358.52
2019-04-14T21:13:01.310Z,101357.95
2019-04-14T21:18:13.037Z,101362.27
2019-04-14T21:23:26.142Z,101362.53
2019-04-14T21:28:46.788Z,101364.92
2019-04-14T21:33:58.272Z,101355.92
2019-04-14T21:39:35.046Z,101368.33
2019-04-14T21:44:37.012Z,101366.09
2019-04-14T21:49:38.909Z,101374.44
2019-04-14T21:54:42.505Z,101380.18
2019-04-14T22:00:04.081Z,101381.67
2019-04-14T22:05:23.710Z,101383.37
2019-04-14T22:10:47.466Z,101399.14
2019-04-14T22:15:49.661Z,101394.36
2019-04-14T22:20:51.609Z,101397.50
2019-04-14T22:25:53.672Z,101399.97
2019-04-14T22:30:55.683Z,101400.31
2019-04-14T22:35:57.746Z,101410.91
2019-04-14T22:40:59.642Z,101405.22
2019-04-14T22:46:01.977Z,101404.87
2019-04-14T22:51:03.894Z,101409.72
2019-04-14T22:56:05.814Z,101410.08
2019-04-14T23:01:23.863Z,101419.98
2019-04-14T23:06:44.007Z,101414.02
2019-04-14T23:12:00.588Z,101416.53
2019-04-14T23:17:40.551Z,101418.98
2019-04-14T23:23:01.005Z,101417.92
2019-04-14T23:28:04.424Z,101424.37
2019-04-14T23:33:06.465Z,101428.02
2019-04-14T23:38:08.533Z,101429.73
2019-04-14T23:43:10.477Z,101431.77
2019-04-14T23:48:12.479Z,101437.45
2019-04-14T23:53:14.635Z,101429.63
2019-04-14T23:58:16.556Z,101426.36
